Time;durP1;ratioP1;P1;durP2;ratioP2;P2;SDS_P1;SDS_P2;PMS_P1;PMS_P2;Temp;Humidity;BMP_temperature;BMP_pressure;BME280_temperature;BME280_humidity;BME280_pressure;Samples;Min_cycle;Max_cycle;Signal;HPM_P1;HPM_P2
2023/05/12 00:00:03;;;;;;;8.20;5.13;;;;;;;;;;5030235;28;20651;-68
2023/05/12 00:02:31;;;;;;;6.18;4.47;;;;;;;;;;5038152;28;20729;-67
2023/05/12 00:04:58;;;;;;;7.32;5.25;;;;;;;;;;5043881;28;20103;-67
2023/05/12 00:07:25;;;;;;;7.55;5.03;;;;;;;;;;5030542;28;20042;-67
2023/05/12 00:09:52;;;;;;;6.80;4.85;;;;;;;;;;5030843;28;20049;-66
2023/05/12 00:12:18;;;;;;;8.02;5.18;;;;;;;;;;5030397;28;20049;-66
2023/05/12 00:14:45;;;;;;;7.82;6.03;;;;;;;;;;5030355;28;20473;-67
2023/05/12 00:17:13;;;;;;;9.35;5.50;;;;;;;;;;5030653;28;20490;-67
2023/05/12 00:19:42;;;;;;;7.55;5.35;;;;;;;;;;5029300;28;20136;-67
2023/05/12 00:22:10;;;;;;;7.27;4.83;;;;;;;;;;5030346;28;20136;-67
2023/05/12 00:24:37;;;;;;;7.43;5.20;;;;;;;;;;5030733;28;20088;-67
2023/05/12 00:27:07;;;;;;;7.43;4.50;;;;;;;;;;5030346;28;20328;-67
2023/05/12 00:29:35;;;;;;;6.18;4.53;;;;;;;;;;5029643;28;20041;-68
2023/05/12 00:32:02;;;;;;;6.50;4.97;;;;;;;;;;5030156;28;20442;-67
2023/05/12 00:34:29;;;;;;;6.15;4.50;;;;;;;;;;5030415;28;20046;-67
2023/05/12 00:36:57;;;;;;;8.88;5.18;;;;;;;;;;5030128;28;20100;-67
2023/05/12 00:42:10;;;;;;;7.88;4.85;;;;;;;;;;5067449;28;20036;-70
2023/05/12 00:44:37;;;;;;;7.45;4.82;;;;;;;;;;5070095;28;20367;-71
2023/05/12 00:47:04;;;;;;;7.93;4.93;;;;;;;;;;5070366;28;20071;-71
2023/05/12 00:49:32;;;;;;;6.55;4.70;;;;;;;;;;5070651;28;20139;-72
2023/05/12 00:52:00;;;;;;;7.88;5.80;;;;;;;;;;5050116;28;20056;-71
2023/05/12 00:54:27;;;;;;;7.00;5.10;;;;;;;;;;5050310;28;20053;-70
2023/05/12 00:56:54;;;;;;;7.88;5.20;;;;;;;;;;5050072;28;20049;-71
2023/05/12 00:59:21;;;;;;;7.40;4.85;;;;;;;;;;5050059;28;20111;-71
2023/05/12 01:01:49;;;;;;;7.43;4.97;;;;;;;;;;5049159;28;20498;-71
2023/05/12 01:04:16;;;;;;;7.35;5.18;;;;;;;;;;5048482;28;20493;-71
2023/05/12 01:06:48;;;;;;;9.27;6.45;;;;;;;;;;5049897;28;20053;-70
2023/05/12 01:09:16;;;;;;;9.43;5.22;;;;;;;;;;5049523;28;20460;-70
2023/05/12 01:11:43;;;;;;;8.27;4.78;;;;;;;;;;5049547;28;20053;-71
2023/05/12 01:14:10;;;;;;;8.25;5.20;;;;;;;;;;5049478;28;20071;-70
2023/05/12 01:16:43;;;;;;;8.10;5.57;;;;;;;;;;5049308;28;20053;-71
2023/05/12 01:19:23;;;;;;;7.38;5.20;;;;;;;;;;5049392;28;20056;-72
2023/05/12 01:21:49;;;;;;;7.53;5.35;;;;;;;;;;5049206;28;20433;-70
2023/05/12 01:24:24;;;;;;;7.53;5.07;;;;;;;;;;5049738;28;20556;-71
2023/05/12 01:26:52;;;;;;;8.10;5.60;;;;;;;;;;5049668;28;20059;-71
2023/05/12 01:29:20;;;;;;;7.63;5.45;;;;;;;;;;5049965;28;20041;-70
2023/05/12 01:31:47;;;;;;;7.38;5.05;;;;;;;;;;5048837;28;20106;-71
2023/05/12 01:34:17;;;;;;;7.63;5.53;;;;;;;;;;5048964;28;20045;-70
2023/05/12 01:36:44;;;;;;;7.78;5.72;;;;;;;;;;5048178;28;20084;-71
2023/05/12 01:39:11;;;;;;;8.15;5.57;;;;;;;;;;5049048;28;20045;-70
2023/05/12 01:41:38;;;;;;;6.72;4.60;;;;;;;;;;5049119;28;20316;-71
2023/05/12 01:44:06;;;;;;;7.25;4.63;;;;;;;;;;5049441;28;20041;-71
2023/05/12 01:46:33;;;;;;;8.35;5.05;;;;;;;;;;5049230;28;20049;-71
2023/05/12 01:49:00;;;;;;;7.47;5.25;;;;;;;;;;5048908;28;20048;-71
2023/05/12 01:51:26;;;;;;;8.05;5.00;;;;;;;;;;5049337;28;20056;-71
2023/05/12 01:53:53;;;;;;;7.93;5.00;;;;;;;;;;5049195;28;20049;-71
2023/05/12 01:56:20;;;;;;;7.63;4.60;;;;;;;;;;5049481;28;20053;-70
2023/05/12 01:58:47;;;;;;;6.28;4.18;;;;;;;;;;5049185;28;20053;-71
2023/05/12 02:01:15;;;;;;;6.10;3.72;;;;;;;;;;5048907;28;20053;-70
2023/05/12 02:03:42;;;;;;;5.80;4.13;;;;;;;;;;5049300;28;20060;-72
2023/05/12 02:06:09;;;;;;;6.10;3.60;;;;;;;;;;5049090;28;20053;-71
2023/05/12 02:08:36;;;;;;;5.80;3.67;;;;;;;;;;5048895;28;20064;-70
2023/05/12 02:11:06;;;;;;;6.45;4.22;;;;;;;;;;5049052;28;20045;-71
2023/05/12 02:13:34;;;;;;;6.88;3.88;;;;;;;;;;5049057;28;20085;-71
2023/05/12 02:16:00;;;;;;;7.70;5.32;;;;;;;;;;5048864;28;20079;-70
2023/05/12 02:18:28;;;;;;;7.70;4.82;;;;;;;;;;5048778;28;20485;-71
2023/05/12 02:20:55;;;;;;;6.65;4.50;;;;;;;;;;5048801;28;20520;-71
2023/05/12 02:23:22;;;;;;;7.22;4.75;;;;;;;;;;5048818;28;20156;-71
2023/05/12 02:25:49;;;;;;;7.88;5.20;;;;;;;;;;5049270;28;20110;-71
2023/05/12 02:28:16;;;;;;;7.57;5.30;;;;;;;;;;5049163;28;20060;-71
2023/05/12 02:30:47;;;;;;;9.13;5.05;;;;;;;;;;5048573;28;20057;-71
2023/05/12 02:33:14;;;;;;;8.88;5.63;;;;;;;;;;5049472;28;20072;-71
2023/05/12 02:35:42;;;;;;;8.52;5.68;;;;;;;;;;5048479;28;20057;-71
2023/05/12 02:38:09;;;;;;;8.70;5.68;;;;;;;;;;5049030;28;20099;-70
2023/05/12 02:40:36;;;;;;;8.30;5.22;;;;;;;;;;5048668;28;20056;-71
2023/05/12 02:43:02;;;;;;;7.53;4.97;;;;;;;;;;5050319;28;20049;-71
2023/05/12 02:45:29;;;;;;;7.60;4.78;;;;;;;;;;5051874;28;20075;-71
2023/05/12 02:47:56;;;;;;;7.70;4.65;;;;;;;;;;5051886;28;20407;-70
2023/05/12 02:50:23;;;;;;;7.00;4.45;;;;;;;;;;5051975;28;20045;-73
2023/05/12 02:52:51;;;;;;;7.72;5.43;;;;;;;;;;5051967;28;20049;-71
2023/05/12 02:55:18;;;;;;;8.57;5.68;;;;;;;;;;5052240;28;20045;-71
2023/05/12 02:57:45;;;;;;;9.35;6.03;;;;;;;;;;5052252;28;20445;-70
2023/05/12 03:00:13;;;;;;;9.77;6.50;;;;;;;;;;5051660;28;20056;-71
2023/05/12 03:02:40;;;;;;;8.80;5.88;;;;;;;;;;5051827;28;20071;-71
2023/05/12 03:05:09;;;;;;;8.82;6.07;;;;;;;;;;5051911;28;20114;-71
2023/05/12 03:07:35;;;;;;;9.35;6.50;;;;;;;;;;5051796;28;20052;-71
2023/05/12 03:10:04;;;;;;;9.60;6.22;;;;;;;;;;5051731;28;20182;-71
2023/05/12 03:12:31;;;;;;;11.13;6.55;;;;;;;;;;5051967;28;20045;-71
2023/05/12 03:14:58;;;;;;;10.18;6.30;;;;;;;;;;5051828;28;20095;-70
2023/05/12 03:17:25;;;;;;;10.57;5.82;;;;;;;;;;5051297;28;20053;-72
2023/05/12 03:19:52;;;;;;;10.23;6.65;;;;;;;;;;5032007;28;20143;-71
2023/05/12 03:22:18;;;;;;;9.32;6.00;;;;;;;;;;5044369;28;20045;-71
2023/05/12 03:24:45;;;;;;;12.75;7.43;;;;;;;;;;5051784;28;20056;-71
2023/05/12 03:27:13;;;;;;;9.85;6.47;;;;;;;;;;5051708;28;20045;-70
2023/05/12 03:29:40;;;;;;;11.20;7.00;;;;;;;;;;5050823;28;20171;-70
2023/05/12 03:32:08;;;;;;;11.40;7.25;;;;;;;;;;5051194;28;20129;-71
2023/05/12 03:34:35;;;;;;;11.07;7.30;;;;;;;;;;5051237;28;20076;-69
2023/05/12 03:37:02;;;;;;;10.15;6.78;;;;;;;;;;5051518;28;20049;-70
2023/05/12 03:39:29;;;;;;;11.48;7.13;;;;;;;;;;5050601;28;20490;-71
2023/05/12 03:41:55;;;;;;;9.55;6.57;;;;;;;;;;5051464;28;20187;-71
2023/05/12 03:44:23;;;;;;;10.18;7.13;;;;;;;;;;5051064;28;20057;-71
2023/05/12 03:46:50;;;;;;;10.95;7.05;;;;;;;;;;5051121;28;20048;-71
2023/05/12 03:49:17;;;;;;;11.15;6.88;;;;;;;;;;5050634;28;20049;-71
2023/05/12 03:51:44;;;;;;;9.63;6.72;;;;;;;;;;5050455;28;20051;-71
2023/05/12 03:54:11;;;;;;;12.88;8.13;;;;;;;;;;5050960;28;20118;-71
2023/05/12 03:56:37;;;;;;;10.65;7.07;;;;;;;;;;5050976;28;20144;-71
2023/05/12 03:59:05;;;;;;;10.48;6.57;;;;;;;;;;5050579;28;20045;-71
2023/05/12 04:01:33;;;;;;;8.90;6.07;;;;;;;;;;5050423;28;20397;-71
2023/05/12 04:04:01;;;;;;;11.48;6.88;;;;;;;;;;5051282;28;20045;-71
2023/05/12 04:06:28;;;;;;;11.07;6.80;;;;;;;;;;5051090;28;20115;-71
2023/05/12 04:08:55;;;;;;;10.15;6.53;;;;;;;;;;5050377;28;20106;-71
2023/05/12 04:11:22;;;;;;;9.88;6.45;;;;;;;;;;5050043;28;20518;-71
2023/05/12 04:13:49;;;;;;;10.43;6.35;;;;;;;;;;5050753;28;20506;-71
2023/05/12 04:16:16;;;;;;;8.75;6.15;;;;;;;;;;5050717;28;20456;-71
2023/05/12 04:18:44;;;;;;;10.27;6.72;;;;;;;;;;5050305;28;20591;-71
2023/05/12 04:21:11;;;;;;;10.27;6.70;;;;;;;;;;5049935;28;20049;-71
2023/05/12 04:23:37;;;;;;;10.13;7.18;;;;;;;;;;5050579;28;20053;-71
2023/05/12 04:26:04;;;;;;;10.48;6.85;;;;;;;;;;5050408;28;20091;-70
2023/05/12 04:28:31;;;;;;;9.57;6.30;;;;;;;;;;5050410;28;20051;-70
2023/05/12 04:31:02;;;;;;;10.57;6.68;;;;;;;;;;5049790;28;20094;-70
2023/05/12 04:33:29;;;;;;;9.15;6.18;;;;;;;;;;5050358;28;20080;-71
2023/05/12 04:35:57;;;;;;;8.63;5.90;;;;;;;;;;5049802;28;20048;-70
2023/05/12 04:38:25;;;;;;;9.18;5.50;;;;;;;;;;5050299;28;20098;-71
2023/05/12 04:40:51;;;;;;;9.95;6.18;;;;;;;;;;5049755;28;20553;-71
2023/05/12 04:43:18;;;;;;;8.10;5.80;;;;;;;;;;5050357;28;20052;-71
2023/05/12 04:45:45;;;;;;;7.68;5.13;;;;;;;;;;5050340;28;20053;-71
2023/05/12 04:48:12;;;;;;;7.78;5.57;;;;;;;;;;5050094;28;20190;-71
2023/05/12 04:50:39;;;;;;;7.70;4.93;;;;;;;;;;5049349;28;20052;-71
2023/05/12 04:53:07;;;;;;;7.10;4.55;;;;;;;;;;5049498;28;20505;-72
2023/05/12 04:55:34;;;;;;;7.45;4.97;;;;;;;;;;5049811;28;20061;-71
2023/05/12 04:58:01;;;;;;;7.45;4.65;;;;;;;;;;5050328;28;20063;-71
2023/05/12 05:00:28;;;;;;;7.78;5.32;;;;;;;;;;5049679;28;20155;-71
2023/05/12 05:02:55;;;;;;;7.43;4.75;;;;;;;;;;5038582;28;20084;-72
2023/05/12 05:05:21;;;;;;;8.20;4.95;;;;;;;;;;5029964;28;20049;-71
2023/05/12 05:07:48;;;;;;;7.03;4.05;;;;;;;;;;5029920;28;20068;-71
2023/05/12 05:10:17;;;;;;;6.57;4.20;;;;;;;;;;5029606;28;20053;-71
2023/05/12 05:12:44;;;;;;;7.72;4.18;;;;;;;;;;5047125;28;20518;-71
2023/05/12 05:15:11;;;;;;;6.82;4.20;;;;;;;;;;5048168;28;20110;-72
2023/05/12 05:17:38;;;;;;;6.90;4.68;;;;;;;;;;5048994;28;20060;-70
2023/05/12 05:20:06;;;;;;;7.88;4.40;;;;;;;;;;5049910;28;20423;-72
2023/05/12 05:22:33;;;;;;;6.70;4.00;;;;;;;;;;5049601;28;20056;-71
2023/05/12 05:25:00;;;;;;;6.72;4.07;;;;;;;;;;5049707;28;20053;-70
2023/05/12 05:27:28;;;;;;;8.88;4.35;;;;;;;;;;5049316;28;20493;-70
2023/05/12 05:29:55;;;;;;;7.47;3.92;;;;;;;;;;5049674;28;20044;-70
2023/05/12 05:32:21;;;;;;;5.43;3.47;;;;;;;;;;5049486;28;20053;-71
2023/05/12 05:34:48;;;;;;;6.32;4.10;;;;;;;;;;5049741;28;20080;-71
2023/05/12 05:37:15;;;;;;;10.45;5.35;;;;;;;;;;5050575;28;20052;-71
2023/05/12 05:39:42;;;;;;;5.60;3.90;;;;;;;;;;5050303;28;20088;-70
2023/05/12 05:42:09;;;;;;;7.32;4.40;;;;;;;;;;5049467;28;20045;-71
2023/05/12 05:44:37;;;;;;;7.18;4.60;;;;;;;;;;5050141;28;20056;-70
2023/05/12 05:47:04;;;;;;;7.28;4.50;;;;;;;;;;5048845;28;20052;-71
2023/05/12 05:49:31;;;;;;;5.93;4.20;;;;;;;;;;5050059;28;20418;-71
2023/05/12 05:51:58;;;;;;;6.28;3.80;;;;;;;;;;5049572;28;20056;-70
2023/05/12 05:54:25;;;;;;;5.28;3.38;;;;;;;;;;5050220;28;20119;-72
2023/05/12 05:56:52;;;;;;;5.68;3.35;;;;;;;;;;5049616;28;20127;-72
2023/05/12 05:59:19;;;;;;;6.35;3.53;;;;;;;;;;5049957;28;20115;-71
2023/05/12 06:01:47;;;;;;;7.35;4.55;;;;;;;;;;5050113;28;20197;-71
2023/05/12 06:04:14;;;;;;;6.93;4.55;;;;;;;;;;5049399;28;20079;-71
2023/05/12 06:06:41;;;;;;;6.50;4.10;;;;;;;;;;5050232;28;20574;-71
2023/05/12 06:09:11;;;;;;;6.55;4.32;;;;;;;;;;5049802;28;20207;-72
2023/05/12 06:11:38;;;;;;;5.90;3.75;;;;;;;;;;5049306;28;20126;-72
2023/05/12 06:14:04;;;;;;;6.35;4.05;;;;;;;;;;5050249;28;20153;-71
2023/05/12 06:16:31;;;;;;;5.00;3.20;;;;;;;;;;5049603;28;20053;-71
2023/05/12 06:19:00;;;;;;;5.68;3.40;;;;;;;;;;5051398;28;20203;-71
2023/05/12 06:21:26;;;;;;;5.90;3.80;;;;;;;;;;5053020;28;20147;-70
2023/05/12 06:23:55;;;;;;;6.88;3.67;;;;;;;;;;5053722;28;20056;-71
2023/05/12 06:26:22;;;;;;;5.13;3.53;;;;;;;;;;5053654;28;20086;-70
2023/05/12 06:28:48;;;;;;;5.72;3.72;;;;;;;;;;5053353;28;20111;-71
2023/05/12 06:31:15;;;;;;;5.88;3.90;;;;;;;;;;5053502;28;20049;-71
2023/05/12 06:33:42;;;;;;;6.97;4.10;;;;;;;;;;5054072;28;20064;-72
2023/05/12 06:36:11;;;;;;;5.93;3.83;;;;;;;;;;5053973;28;20048;-71
2023/05/12 06:38:38;;;;;;;7.03;4.53;;;;;;;;;;5054407;28;20401;-71
2023/05/12 06:41:05;;;;;;;7.15;4.50;;;;;;;;;;5076316;22;20048;-78
2023/05/12 06:43:31;;;;;;;8.52;5.50;;;;;;;;;;5072171;28;20076;-78
2023/05/12 06:45:58;;;;;;;7.43;4.35;;;;;;;;;;5074003;28;20555;-77
2023/05/12 06:48:24;;;;;;;6.70;4.68;;;;;;;;;;5073577;28;20132;-77
2023/05/12 06:50:52;;;;;;;6.53;4.25;;;;;;;;;;5073724;28;20080;-77
2023/05/12 06:53:20;;;;;;;8.73;5.03;;;;;;;;;;5075270;28;20088;-76
2023/05/12 06:55:46;;;;;;;8.23;4.88;;;;;;;;;;5075484;28;20068;-78
2023/05/12 06:58:13;;;;;;;7.50;4.88;;;;;;;;;;5076362;28;20094;-77
2023/05/12 07:00:40;;;;;;;6.75;4.65;;;;;;;;;;5075366;28;20131;-79
2023/05/12 07:03:08;;;;;;;7.30;4.70;;;;;;;;;;5058892;28;20075;-77
2023/05/12 07:05:35;;;;;;;6.28;4.18;;;;;;;;;;5054212;28;20136;-78
2023/05/12 07:08:02;;;;;;;5.63;3.55;;;;;;;;;;5053440;28;20070;-77
2023/05/12 07:10:31;;;;;;;6.13;3.72;;;;;;;;;;5057473;28;20261;-79
2023/05/12 07:12:58;;;;;;;6.20;3.47;;;;;;;;;;5059401;28;20446;-78
2023/05/12 07:15:25;;;;;;;4.80;3.05;;;;;;;;;;5058757;28;20554;-81
2023/05/12 07:17:53;;;;;;;4.70;3.03;;;;;;;;;;5065101;28;20041;-80
2023/05/12 07:20:19;;;;;;;6.15;3.25;;;;;;;;;;5078397;28;20075;-79
2023/05/12 07:22:46;;;;;;;5.35;3.22;;;;;;;;;;5078531;28;20068;-81
2023/05/12 07:25:13;;;;;;;5.72;3.08;;;;;;;;;;5078428;28;20102;-79
2023/05/12 07:27:41;;;;;;;5.38;3.00;;;;;;;;;;5077761;28;20048;-80
2023/05/12 07:30:09;;;;;;;4.65;3.10;;;;;;;;;;5074945;28;20079;-78
2023/05/12 07:32:35;;;;;;;5.32;3.50;;;;;;;;;;5078757;28;20086;-77
2023/05/12 07:35:06;;;;;;;6.82;4.40;;;;;;;;;;5082624;28;20070;-76
2023/05/12 07:37:33;;;;;;;6.72;3.85;;;;;;;;;;5080098;28;20130;-79
2023/05/12 07:40:00;;;;;;;7.38;4.50;;;;;;;;;;5069329;28;20040;-78
2023/05/12 07:42:26;;;;;;;6.53;4.20;;;;;;;;;;5071980;28;20139;-78
2023/05/12 07:44:54;;;;;;;6.50;4.43;;;;;;;;;;5072126;28;20083;-77
2023/05/12 07:47:21;;;;;;;6.65;4.15;;;;;;;;;;5073907;28;20083;-77
2023/05/12 07:49:48;;;;;;;6.95;4.60;;;;;;;;;;5074299;28;20040;-77
2023/05/12 07:52:14;;;;;;;7.13;5.00;;;;;;;;;;5075211;28;20127;-76
2023/05/12 07:54:41;;;;;;;6.60;4.35;;;;;;;;;;5074494;28;20497;-77
2023/05/12 07:57:08;;;;;;;6.82;4.75;;;;;;;;;;5073032;28;20170;-77
2023/05/12 07:59:34;;;;;;;7.20;4.40;;;;;;;;;;5072201;28;20051;-77
2023/05/12 08:02:03;;;;;;;6.88;4.60;;;;;;;;;;5071496;28;20050;-79
2023/05/12 08:04:29;;;;;;;6.80;4.60;;;;;;;;;;5072145;28;20055;-77
2023/05/12 08:06:56;;;;;;;6.97;4.75;;;;;;;;;;5074774;28;20124;-76
2023/05/12 08:09:23;;;;;;;7.63;5.30;;;;;;;;;;5073404;28;20119;-76
2023/05/12 08:11:50;;;;;;;6.68;4.28;;;;;;;;;;5080632;28;20041;-77
2023/05/12 08:14:16;;;;;;;6.82;3.85;;;;;;;;;;5084901;28;20051;-77
2023/05/12 08:16:45;;;;;;;5.30;3.50;;;;;;;;;;5076456;28;20075;-76
2023/05/12 08:19:13;;;;;;;6.60;4.25;;;;;;;;;;5077807;28;20098;-77
2023/05/12 08:21:40;;;;;;;7.97;3.50;;;;;;;;;;5065798;28;20131;-77
2023/05/12 08:24:07;;;;;;;5.35;3.30;;;;;;;;;;5062699;28;20127;-77
2023/05/12 08:26:33;;;;;;;7.25;3.55;;;;;;;;;;5057850;28;20103;-77
2023/05/12 08:29:00;;;;;;;5.78;3.00;;;;;;;;;;5054551;28;20086;-78
2023/05/12 08:31:27;;;;;;;6.45;3.28;;;;;;;;;;5066792;28;20040;-84
2023/05/12 08:33:54;;;;;;;4.82;3.05;;;;;;;;;;5081125;28;20040;-77
2023/05/12 08:36:22;;;;;;;4.85;2.90;;;;;;;;;;5085305;28;20542;-78
2023/05/12 08:38:48;;;;;;;5.45;3.15;;;;;;;;;;5073468;28;20045;-82
2023/05/12 08:41:20;;;;;;;5.63;3.63;;;;;;;;;;5075745;28;20910;-80
2023/05/12 08:43:50;;;;;;;5.60;3.50;;;;;;;;;;5069225;28;20091;-78
2023/05/12 08:46:17;;;;;;;8.38;4.40;;;;;;;;;;5076404;28;20032;-77
2023/05/12 08:48:46;;;;;;;5.85;3.40;;;;;;;;;;5074754;28;20067;-77
2023/05/12 08:51:14;;;;;;;6.97;4.47;;;;;;;;;;5064706;28;20419;-76
2023/05/12 08:53:42;;;;;;;6.78;4.35;;;;;;;;;;5069850;28;20044;-77
2023/05/12 08:56:12;;;;;;;8.13;4.82;;;;;;;;;;5069528;28;20097;-76
2023/05/12 08:58:39;;;;;;;8.48;5.03;;;;;;;;;;5080391;28;20074;-76
2023/05/12 09:01:07;;;;;;;7.88;4.47;;;;;;;;;;5073114;28;20043;-76
2023/05/12 09:03:34;;;;;;;6.90;4.20;;;;;;;;;;5072867;28;20041;-75
2023/05/12 09:06:02;;;;;;;5.88;3.00;;;;;;;;;;5072634;28;20061;-76
2023/05/12 09:08:31;;;;;;;5.88;3.20;;;;;;;;;;5089935;28;20044;-75
2023/05/12 09:11:01;;;;;;;8.45;3.67;;;;;;;;;;5081392;28;20033;-77
2023/05/12 09:13:33;;;;;;;6.03;2.80;;;;;;;;;;5057967;28;20037;-76
2023/05/12 09:16:02;;;;;;;6.18;2.75;;;;;;;;;;5061746;28;20041;-77
2023/05/12 09:18:44;;;;;;;4.97;2.25;;;;;;;;;;5077940;28;20033;-76
2023/05/12 09:21:11;;;;;;;4.03;2.50;;;;;;;;;;5071424;28;20041;-76
2023/05/12 09:23:38;;;;;;;5.03;2.78;;;;;;;;;;5057947;28;20045;-76
2023/05/12 09:26:06;;;;;;;9.88;4.30;;;;;;;;;;5054325;28;20049;-76
2023/05/12 09:28:37;;;;;;;6.55;2.80;;;;;;;;;;5055584;28;20044;-76
2023/05/12 09:31:14;;;;;;;;;;;;;;;;;;5070924;28;20103;-75
2023/05/12 09:33:40;;;;;;;3.80;2.38;;;;;;;;;;5075396;28;20016;-75
2023/05/12 09:36:07;;;;;;;4.22;2.00;;;;;;;;;;5065928;28;20045;-76
2023/05/12 09:38:36;;;;;;;2.88;1.73;;;;;;;;;;5066802;28;20055;-76
2023/05/12 09:41:08;;;;;;;3.17;1.70;;;;;;;;;;5065272;28;20053;-77
2023/05/12 09:43:35;;;;;;;5.55;2.55;;;;;;;;;;5064058;28;20049;-75
2023/05/12 09:46:05;;;;;;;5.05;2.17;;;;;;;;;;5058195;28;20104;-76
2023/05/12 09:48:32;;;;;;;4.43;2.42;;;;;;;;;;5055532;28;20132;-76
2023/05/12 09:50:59;;;;;;;4.82;2.25;;;;;;;;;;5071720;28;20543;-77
2023/05/12 09:53:26;;;;;;;3.45;1.90;;;;;;;;;;5068352;28;20610;-76
2023/05/12 09:55:53;;;;;;;3.25;1.70;;;;;;;;;;5056245;28;20488;-76
2023/05/12 09:58:22;;;;;;;2.53;1.60;;;;;;;;;;5059904;28;20556;-75
2023/05/12 10:00:52;;;;;;;5.20;1.90;;;;;;;;;;5073686;28;20140;-75
2023/05/12 10:03:23;;;;;;;4.00;1.95;;;;;;;;;;5076569;28;20048;-77
2023/05/12 10:05:53;;;;;;;5.75;2.38;;;;;;;;;;5065952;28;20055;-78
2023/05/12 10:08:31;;;;;;;3.92;1.90;;;;;;;;;;5060798;28;20116;-76
2023/05/12 10:11:00;;;;;;;5.00;2.10;;;;;;;;;;5055126;28;20492;-77
2023/05/12 10:13:28;;;;;;;5.28;3.40;;;;;;;;;;5054292;28;20156;-77
2023/05/12 10:15:56;;;;;;;6.28;4.55;;;;;;;;;;5054157;28;20102;-78
2023/05/12 10:18:24;;;;;;;2.78;1.60;;;;;;;;;;5053389;28;20041;-77
2023/05/12 10:20:52;;;;;;;2.22;1.10;;;;;;;;;;5058638;28;20052;-78
2023/05/12 10:23:20;;;;;;;3.92;1.40;;;;;;;;;;5052996;28;20099;-78
2023/05/12 10:25:47;;;;;;;2.20;1.20;;;;;;;;;;5053168;28;20045;-77
2023/05/12 10:28:15;;;;;;;3.05;1.35;;;;;;;;;;5053368;28;20077;-79
2023/05/12 10:30:45;;;;;;;2.75;1.13;;;;;;;;;;5072643;28;20049;-78
2023/05/12 10:33:12;;;;;;;3.00;1.40;;;;;;;;;;5055171;28;20133;-77
2023/05/12 10:35:39;;;;;;;3.70;1.40;;;;;;;;;;5055715;28;20045;-78
2023/05/12 10:41:37;;;;;;;2.60;1.20;;;;;;;;;;5043085;28;20071;-78
2023/05/12 10:44:04;;;;;;;3.67;1.90;;;;;;;;;;5055649;28;20045;-78
2023/05/12 10:46:33;;;;;;;2.38;1.38;;;;;;;;;;5053417;28;20431;-77
2023/05/12 10:49:03;;;;;;;3.33;1.83;;;;;;;;;;5053299;28;20743;-78
2023/05/12 10:51:31;;;;;;;;;;;;;;;;;;5053602;28;20507;-77
2023/05/12 10:54:00;;;;;;;3.22;1.60;;;;;;;;;;5053561;28;20011;-78
2023/05/12 10:56:28;;;;;;;3.60;1.70;;;;;;;;;;5053282;28;20624;-78
2023/05/12 10:59:23;;;;;;;2.83;1.63;;;;;;;;;;5053182;28;20691;-77
2023/05/12 11:02:02;;;;;;;3.22;1.88;;;;;;;;;;5006158;28;20052;-78
2023/05/12 11:04:43;;;;;;;3.72;1.80;;;;;;;;;;5052728;28;20087;-78
2023/05/12 11:07:17;;;;;;;5.70;2.20;;;;;;;;;;5053784;28;20476;-78
2023/05/12 11:09:50;;;;;;;3.80;2.10;;;;;;;;;;5053648;28;20103;-78
2023/05/12 11:12:17;;;;;;;3.70;1.88;;;;;;;;;;5053111;28;20060;-79
2023/05/12 11:14:45;;;;;;;3.47;1.80;;;;;;;;;;5054393;28;20136;-77
2023/05/12 11:17:13;;;;;;;3.10;1.50;;;;;;;;;;5054064;28;20563;-78
2023/05/12 11:19:45;;;;;;;2.30;1.30;;;;;;;;;;5052524;28;20057;-78
2023/05/12 11:22:18;;;;;;;3.58;1.67;;;;;;;;;;5053076;28;20130;-79
2023/05/12 11:24:48;;;;;;;4.82;1.65;;;;;;;;;;5054669;28;20053;-76
2023/05/12 11:27:16;;;;;;;3.13;1.75;;;;;;;;;;5053888;28;20048;-78
2023/05/12 11:29:45;;;;;;;3.42;1.90;;;;;;;;;;5052466;28;20272;-78
2023/05/12 11:32:15;;;;;;;3.88;1.90;;;;;;;;;;5051954;28;20415;-77
2023/05/12 11:34:43;;;;;;;5.43;2.27;;;;;;;;;;5052426;28;20106;-76
2023/05/12 11:37:10;;;;;;;3.50;1.85;;;;;;;;;;5051808;28;20419;-79
2023/05/12 11:39:37;;;;;;;3.58;1.73;;;;;;;;;;5052408;28;20049;-79
2023/05/12 11:42:05;;;;;;;3.10;1.85;;;;;;;;;;5045852;28;20076;-76
2023/05/12 11:44:32;;;;;;;3.28;1.48;;;;;;;;;;5052431;28;20132;-77
2023/05/12 11:47:00;;;;;;;2.65;1.30;;;;;;;;;;5051989;28;20084;-77
2023/05/12 11:49:30;;;;;;;4.63;2.22;;;;;;;;;;5051203;28;20508;-78
2023/05/12 11:51:57;;;;;;;4.43;2.38;;;;;;;;;;5051449;28;20124;-78
2023/05/12 11:54:25;;;;;;;3.65;1.83;;;;;;;;;;5051201;28;20129;-77
2023/05/12 11:56:53;;;;;;;3.65;2.10;;;;;;;;;;5051287;28;20041;-78
2023/05/12 11:59:28;;;;;;;3.20;1.70;;;;;;;;;;5056563;28;20036;-77
2023/05/12 12:01:55;;;;;;;3.90;2.00;;;;;;;;;;5051302;28;20047;-77
2023/05/12 12:04:33;;;;;;;3.80;1.90;;;;;;;;;;5050792;28;20457;-78
2023/05/12 12:07:00;;;;;;;3.58;1.98;;;;;;;;;;5050870;28;20514;-77
2023/05/12 12:09:31;;;;;;;4.07;2.40;;;;;;;;;;5051045;28;20044;-77
2023/05/12 12:11:58;;;;;;;3.53;1.90;;;;;;;;;;5050889;28;20049;-77
2023/05/12 12:14:25;;;;;;;3.83;2.00;;;;;;;;;;5051427;28;20132;-77
2023/05/12 12:16:51;;;;;;;3.40;1.85;;;;;;;;;;5051183;28;20655;-78
2023/05/12 12:19:18;;;;;;;3.25;1.95;;;;;;;;;;5051312;28;20136;-78
2023/05/12 12:21:46;;;;;;;4.05;2.10;;;;;;;;;;5050492;28;20511;-78
2023/05/12 12:24:12;;;;;;;4.15;2.50;;;;;;;;;;5051143;28;20128;-78
2023/05/12 12:26:39;;;;;;;4.18;2.50;;;;;;;;;;5051182;28;20132;-78
2023/05/12 12:29:06;;;;;;;4.60;2.53;;;;;;;;;;5050710;28;20419;-78
2023/05/12 12:31:35;;;;;;;3.72;2.22;;;;;;;;;;5050332;28;20045;-77
2023/05/12 12:34:02;;;;;;;3.92;2.10;;;;;;;;;;5050798;28;20135;-78
2023/05/12 12:36:29;;;;;;;3.97;2.42;;;;;;;;;;5050557;28;20045;-77
2023/05/12 12:38:57;;;;;;;4.25;2.67;;;;;;;;;;5049958;28;20045;-77
2023/05/12 12:41:24;;;;;;;4.30;2.40;;;;;;;;;;5049981;28;20423;-77
2023/05/12 12:47:54;;;;;;;6.93;2.40;;;;;;;;;;5737376;22;20052;-75
2023/05/12 12:50:21;;;;;;;4.65;3.05;;;;;;;;;;5089575;28;20134;-76
2023/05/12 12:52:48;;;;;;;4.78;2.90;;;;;;;;;;5092178;28;20528;-76
2023/05/12 12:55:17;;;;;;;6.15;3.10;;;;;;;;;;5090656;28;20036;-76
2023/05/12 12:57:43;;;;;;;5.45;3.15;;;;;;;;;;5090413;28;20040;-76
2023/05/12 13:00:11;;;;;;;5.55;3.10;;;;;;;;;;5090116;28;20473;-75
2023/05/12 13:02:38;;;;;;;5.15;3.60;;;;;;;;;;5080698;28;20499;-75
2023/05/12 13:05:05;;;;;;;5.03;3.83;;;;;;;;;;5070573;28;20060;-76
2023/05/12 13:07:33;;;;;;;6.20;4.38;;;;;;;;;;5070561;28;20132;-76
2023/05/12 13:10:00;;;;;;;6.68;5.43;;;;;;;;;;5070989;28;20041;-76
2023/05/12 13:12:29;;;;;;;6.70;5.25;;;;;;;;;;5071904;28;20110;-77
2023/05/12 13:14:55;;;;;;;7.78;4.57;;;;;;;;;;5074102;28;20048;-77
2023/05/12 13:17:22;;;;;;;6.10;4.15;;;;;;;;;;5074201;28;20044;-77
2023/05/12 13:19:48;;;;;;;6.15;4.03;;;;;;;;;;5088446;28;20066;-78
2023/05/12 13:22:15;;;;;;;5.88;4.40;;;;;;;;;;5076228;28;20366;-78
2023/05/12 13:24:43;;;;;;;7.72;4.40;;;;;;;;;;5076401;28;20071;-75
2023/05/12 13:27:09;;;;;;;6.03;4.25;;;;;;;;;;5086092;28;20067;-75
2023/05/12 13:29:38;;;;;;;7.07;5.32;;;;;;;;;;5086244;28;20113;-77
2023/05/12 13:32:05;;;;;;;7.90;5.38;;;;;;;;;;5059877;28;20044;-76
2023/05/12 13:34:32;;;;;;;6.22;4.57;;;;;;;;;;5072159;28;20052;-76
2023/05/12 13:36:59;;;;;;;7.47;5.05;;;;;;;;;;5066745;28;20041;-76
2023/05/12 13:39:26;;;;;;;7.35;5.35;;;;;;;;;;5054633;28;20044;-77
2023/05/12 13:41:52;;;;;;;6.70;4.97;;;;;;;;;;5054766;28;20051;-78
2023/05/12 13:44:19;;;;;;;7.20;4.82;;;;;;;;;;5058465;28;20487;-77
2023/05/12 13:46:47;;;;;;;7.00;4.40;;;;;;;;;;5074395;28;20553;-77
2023/05/12 13:49:13;;;;;;;6.68;4.93;;;;;;;;;;5075067;28;20209;-75
2023/05/12 13:58:24;;;;;;;7.13;4.20;;;;;;;;;;5068631;28;20058;-76
2023/05/12 14:04:14;;;;;;;7.35;4.75;;;;;;;;;;5068164;28;20059;-76
2023/05/12 14:06:40;;;;;;;7.72;4.93;;;;;;;;;;5073803;28;20072;-76
2023/05/12 14:09:07;;;;;;;7.40;4.50;;;;;;;;;;5073309;28;20049;-77
2023/05/12 14:11:36;;;;;;;7.78;4.97;;;;;;;;;;5075230;28;20044;-78
2023/05/12 14:27:11;;;;;;;7.13;4.38;;;;;;;;;;4977404;28;20351;-78
2023/05/12 14:29:37;;;;;;;5.50;3.60;;;;;;;;;;5009873;28;20042;-76
2023/05/12 14:32:05;;;;;;;6.35;3.97;;;;;;;;;;5006590;28;20049;-76
2023/05/12 14:34:32;;;;;;;6.15;3.70;;;;;;;;;;4980309;28;20050;-74
2023/05/12 14:37:05;;;;;;;6.35;4.00;;;;;;;;;;4927253;28;20079;-77
2023/05/12 14:39:31;;;;;;;5.28;3.58;;;;;;;;;;4854901;29;20097;-76
2023/05/12 14:41:58;;;;;;;6.65;3.83;;;;;;;;;;4740805;30;20095;-75
2023/05/12 14:44:27;;;;;;;5.88;4.00;;;;;;;;;;4674366;30;20078;-76
2023/05/12 14:49:31;;;;;;;6.90;4.32;;;;;;;;;;5193559;27;20128;-68
2023/05/12 14:51:58;;;;;;;6.00;3.80;;;;;;;;;;5147861;27;20047;-69
2023/05/12 14:54:24;;;;;;;5.88;3.90;;;;;;;;;;5147410;27;20404;-69
2023/05/12 14:56:50;;;;;;;5.65;4.35;;;;;;;;;;5146245;27;20043;-68
2023/05/12 14:59:17;;;;;;;5.28;3.33;;;;;;;;;;5131711;27;20454;-67
2023/05/12 15:01:43;;;;;;;5.70;3.35;;;;;;;;;;5102202;28;20449;-68
2023/05/12 15:04:09;;;;;;;5.55;3.60;;;;;;;;;;5129372;27;20057;-68
2023/05/12 15:11:38;;;;;;;5.32;3.58;;;;;;;;;;5193157;27;20113;-66
2023/05/12 15:14:05;;;;;;;6.63;4.07;;;;;;;;;;5189052;27;20394;-67
2023/05/12 15:16:31;;;;;;;5.97;3.90;;;;;;;;;;5123340;27;1303111;-68
2023/05/12 15:18:58;;;;;;;5.88;3.88;;;;;;;;;;5106564;28;20120;-67
2023/05/12 15:21:26;;;;;;;5.65;3.67;;;;;;;;;;5108250;28;20062;-67
2023/05/12 15:23:52;;;;;;;7.22;3.90;;;;;;;;;;5107677;28;20044;-67
2023/05/12 15:26:20;;;;;;;5.70;4.30;;;;;;;;;;5107656;28;20047;-68